createdAt,value
2018-12-14T00:02:11.781Z,18.73
2018-12-14T00:04:42.866Z,19.87
2018-12-14T00:07:14.488Z,21.97
2018-12-14T00:09:44.997Z,20.13
2018-12-14T00:12:14.302Z,19.63
2018-12-14T00:14:52.212Z,17.87
2018-12-14T00:17:25.598Z,22.27
2018-12-14T00:19:57.148Z,20.73
2018-12-14T00:22:28.488Z,20.07
2018-12-14T00:25:00.178Z,19.13
2018-12-14T00:30:04.561Z,17.07
2018-12-14T00:32:38.621Z,21.90
2018-12-14T00:35:09.805Z,19.73
2018-12-14T00:37:40.925Z,21.47
2018-12-14T00:40:14.381Z,17.93
2018-12-14T00:42:45.665Z,21.27
2018-12-14T00:45:19.884Z,22.30
2018-12-14T00:47:54.972Z,20.00
2018-12-14T00:50:25.602Z,21.97
2018-12-14T00:52:54.687Z,21.80
2018-12-14T00:55:26.048Z,20.47
2018-12-14T00:57:55.216Z,20.23
2018-12-14T01:00:26.639Z,20.63
2018-12-14T01:02:57.730Z,24.43
2018-12-14T01:05:34.843Z,19.20
2018-12-14T01:08:06.184Z,18.50
2018-12-14T01:10:37.236Z,20.33
2018-12-14T01:13:08.100Z,21.00
2018-12-14T01:15:39.424Z,19.10
2018-12-14T01:18:08.429Z,20.53
2018-12-14T01:20:46.587Z,22.37
2018-12-14T01:23:20.622Z,21.67
2018-12-14T01:25:51.765Z,21.60
2018-12-14T01:28:22.210Z,19.43
2018-12-14T01:30:58.576Z,20.30
2018-12-14T01:33:27.354Z,19.30
2018-12-14T01:36:04.452Z,18.83
2018-12-14T01:38:39.320Z,17.20
2018-12-14T01:41:13.148Z,18.97
2018-12-14T01:43:41.916Z,17.07
2018-12-14T01:46:15.589Z,18.30
2018-12-14T01:48:46.342Z,17.70
2018-12-14T01:51:23.825Z,18.30
2018-12-14T01:53:52.900Z,21.23
2018-12-14T01:56:23.815Z,16.53
2018-12-14T01:58:52.829Z,17.57
2018-12-14T02:01:30.056Z,18.60
2018-12-14T02:04:00.556Z,20.43
2018-12-14T02:06:37.684Z,17.90
2018-12-14T02:09:08.212Z,17.27
2018-12-14T02:11:39.900Z,15.27
2018-12-14T02:14:10.761Z,15.30
2018-12-14T02:16:39.510Z,17.20
2018-12-14T02:19:19.737Z,16.93
2018-12-14T02:21:50.206Z,16.07
2018-12-14T02:24:38.544Z,16.03
2018-12-14T02:27:07.357Z,20.77
2018-12-14T02:32:08.531Z,18.43
2018-12-14T02:34:41.801Z,16.00
2018-12-14T02:37:12.537Z,18.57
2018-12-14T02:39:46.098Z,16.53
2018-12-14T02:42:19.369Z,14.43
2018-12-14T02:44:50.286Z,16.10
2018-12-14T02:47:27.840Z,16.23
2018-12-14T02:50:01.162Z,17.13
2018-12-14T02:52:32.478Z,15.73
2018-12-14T02:55:03.511Z,17.73
2018-12-14T02:57:38.133Z,16.27
2018-12-14T03:00:12.634Z,15.77
2018-12-14T03:02:46.085Z,15.43
2018-12-14T03:05:23.657Z,17.07
2018-12-14T03:07:54.266Z,14.80
2018-12-14T03:10:33.888Z,14.40
2018-12-14T03:13:04.857Z,16.80
2018-12-14T03:15:35.577Z,17.67
2018-12-14T03:18:04.568Z,18.77
2018-12-14T03:20:33.925Z,18.30
2018-12-14T03:23:05.114Z,15.17
2018-12-14T03:25:34.295Z,19.03
2018-12-14T03:28:12.154Z,19.63
2018-12-14T03:33:21.017Z,19.57
2018-12-14T03:35:51.401Z,18.17
2018-12-14T03:38:23.045Z,16.27
2018-12-14T03:40:53.621Z,18.70
2018-12-14T03:43:22.754Z,18.53
2018-12-14T03:46:01.230Z,18.43
2018-12-14T03:48:31.802Z,15.60
2018-12-14T03:51:02.917Z,19.70
2018-12-14T03:53:33.990Z,17.07
2018-12-14T03:56:03.210Z,19.50
2018-12-14T03:58:39.168Z,19.50
2018-12-14T04:01:08.432Z,18.20
2018-12-14T04:03:39.880Z,17.30
2018-12-14T04:06:10.681Z,16.30
2018-12-14T04:08:46.834Z,17.93
2018-12-14T04:11:15.935Z,17.80
2018-12-14T04:13:53.478Z,19.17
2018-12-14T04:16:27.273Z,17.30
2018-12-14T04:19:01.264Z,16.50
2018-12-14T04:21:32.341Z,17.07
2018-12-14T04:24:03.522Z,16.20
2018-12-14T04:26:37.422Z,15.03
2018-12-14T04:29:11.163Z,15.30
2018-12-14T04:31:41.853Z,14.97
2018-12-14T04:34:13.673Z,15.40
2018-12-14T04:36:47.840Z,18.03
2018-12-14T04:39:17.141Z,16.40
2018-12-14T04:41:48.434Z,17.20
2018-12-14T04:44:17.687Z,16.67
2018-12-14T04:46:53.981Z,14.77
2018-12-14T04:49:25.105Z,19.10
2018-12-14T04:51:58.876Z,14.80
2018-12-14T04:54:29.264Z,18.27
2018-12-14T04:57:00.192Z,15.77
2018-12-14T04:59:31.605Z,17.13
2018-12-14T05:02:02.017Z,18.43
2018-12-14T05:04:30.971Z,18.63
2018-12-14T05:07:02.223Z,21.73
2018-12-14T05:09:35.681Z,18.30
2018-12-14T05:12:06.962Z,20.63
2018-12-14T05:14:44.311Z,19.47
2018-12-14T05:17:18.229Z,21.87
2018-12-14T05:19:47.405Z,20.73
2018-12-14T05:22:18.748Z,19.83
2018-12-14T05:24:49.650Z,21.30
2018-12-14T05:27:25.645Z,20.67
2018-12-14T05:29:56.952Z,22.03
2018-12-14T05:32:27.573Z,18.70
2018-12-14T05:35:03.589Z,19.97
2018-12-14T05:37:34.157Z,19.67
2018-12-14T05:40:07.864Z,18.80
2018-12-14T05:42:41.927Z,16.70
2018-12-14T05:45:11.129Z,17.90
2018-12-14T05:47:43.579Z,17.83
2018-12-14T05:50:14.463Z,16.83
2018-12-14T05:52:45.889Z,18.67
2018-12-14T05:55:20.530Z,15.67
2018-12-14T05:57:51.325Z,17.93
2018-12-14T06:00:26.581Z,17.83
2018-12-14T06:02:57.559Z,18.50
2018-12-14T06:05:28.916Z,17.73
2018-12-14T06:07:59.696Z,16.83
2018-12-14T06:10:34.293Z,16.30
2018-12-14T06:13:09.047Z,20.17
2018-12-14T06:15:43.021Z,15.77
2018-12-14T06:18:17.169Z,17.67
2018-12-14T06:20:48.317Z,17.07
2018-12-14T06:23:19.696Z,16.93
2018-12-14T06:25:50.478Z,17.50
2018-12-14T06:28:21.701Z,20.23
2018-12-14T06:30:52.448Z,20.13
2018-12-14T06:33:26.122Z,22.60
2018-12-14T06:36:03.298Z,20.87
2018-12-14T06:38:36.929Z,18.40
2018-12-14T06:41:11.433Z,22.67
2018-12-14T06:43:42.622Z,19.80
2018-12-14T06:46:11.413Z,20.43
2018-12-14T06:48:42.513Z,19.03
2018-12-14T06:51:14.146Z,19.47
2018-12-14T06:53:42.737Z,18.87
2018-12-14T06:56:15.413Z,17.47
2018-12-14T06:58:46.444Z,18.97
2018-12-14T07:01:17.257Z,18.00
2018-12-14T07:03:48.991Z,18.53
2018-12-14T07:06:22.150Z,16.40
2018-12-14T07:08:53.385Z,15.77
2018-12-14T07:11:24.317Z,15.27
2018-12-14T07:13:55.912Z,18.37
2018-12-14T07:16:26.504Z,17.73
2018-12-14T07:18:57.645Z,15.47
2018-12-14T07:21:28.749Z,18.93
2018-12-14T07:23:59.801Z,16.47
2018-12-14T07:26:36.237Z,17.07
2018-12-14T07:29:10.949Z,16.77
2018-12-14T07:31:42.105Z,17.50
2018-12-14T07:36:45.164Z,16.67
2018-12-14T07:39:19.298Z,16.80
2018-12-14T07:41:53.330Z,18.27
2018-12-14T07:44:24.141Z,18.10
2018-12-14T07:46:58.734Z,18.50
2018-12-14T07:49:32.325Z,18.00
2018-12-14T07:52:02.700Z,19.63
2018-12-14T07:54:33.785Z,15.07
2018-12-14T07:57:10.933Z,15.43
2018-12-14T07:59:45.697Z,14.77
2018-12-14T08:02:16.580Z,14.00
2018-12-14T08:04:47.410Z,17.50
2018-12-14T08:07:25.638Z,14.70
2018-12-14T08:09:56.549Z,13.57
2018-12-14T08:12:27.626Z,19.23
2018-12-14T08:14:59.585Z,20.60
2018-12-14T08:17:29.972Z,17.23
2018-12-14T08:20:00.978Z,18.17
2018-12-14T08:22:32.044Z,14.73
2018-12-14T08:25:03.860Z,15.60
2018-12-14T08:27:34.250Z,15.43
2018-12-14T08:30:12.041Z,17.37
2018-12-14T08:32:42.278Z,18.17
2018-12-14T08:35:13.516Z,17.70
2018-12-14T08:37:51.233Z,17.23
2018-12-14T08:40:24.340Z,17.33
2018-12-14T08:42:54.685Z,14.70
2018-12-14T08:45:25.680Z,18.07
2018-12-14T08:48:00.876Z,17.73
2018-12-14T08:50:34.032Z,15.60
2018-12-14T08:53:05.829Z,16.33
2018-12-14T08:55:37.161Z,16.97
2018-12-14T08:58:08.046Z,15.13
2018-12-14T09:00:41.880Z,16.67
2018-12-14T09:03:11.151Z,14.60
2018-12-14T09:05:41.946Z,16.30
2018-12-14T09:08:13.021Z,17.97
2018-12-14T09:10:44.281Z,15.57
2018-12-14T09:13:13.590Z,15.90
2018-12-14T09:15:42.678Z,18.30
2018-12-14T09:18:13.878Z,16.73
2018-12-14T09:20:44.852Z,16.07
2018-12-14T09:23:16.188Z,14.47
2018-12-14T09:25:46.836Z,14.27
2018-12-14T09:28:21.981Z,17.43
2018-12-14T09:30:58.449Z,15.77
2018-12-14T09:33:34.109Z,16.60
2018-12-14T09:36:07.918Z,16.13
2018-12-14T09:38:39.765Z,15.37
2018-12-14T09:41:16.199Z,14.30
2018-12-14T09:43:42.257Z,15.83
2018-12-14T09:46:11.444Z,16.17
2018-12-14T09:48:48.444Z,11.70
2018-12-14T09:51:26.020Z,14.67
2018-12-14T09:53:56.993Z,15.87
2018-12-14T09:56:28.219Z,17.57
2018-12-14T09:59:05.458Z,17.47
2018-12-14T10:01:42.045Z,17.37
2018-12-14T10:04:11.377Z,12.70
2018-12-14T10:06:41.752Z,17.00
2018-12-14T10:09:12.750Z,14.70
2018-12-14T10:11:43.641Z,16.83
2018-12-14T10:14:20.794Z,18.80
2018-12-14T10:16:51.406Z,12.73
2018-12-14T10:19:22.467Z,15.00
2018-12-14T10:21:53.532Z,14.30
2018-12-14T10:24:24.685Z,14.30
2018-12-14T10:26:55.781Z,17.27
2018-12-14T10:29:30.729Z,17.07
2018-12-14T10:32:01.088Z,12.73
2018-12-14T10:34:38.557Z,14.70
2018-12-14T10:37:09.413Z,15.80
2018-12-14T10:39:40.311Z,14.00
2018-12-14T10:42:11.858Z,16.97
2018-12-14T10:44:42.269Z,14.13
2018-12-14T10:47:12.677Z,16.80
2018-12-14T10:49:50.615Z,15.83
2018-12-14T10:52:21.236Z,17.90
2018-12-14T10:54:51.324Z,19.40
2018-12-14T10:57:22.296Z,17.80
2018-12-14T10:59:53.716Z,16.80
2018-12-14T11:02:24.282Z,18.87
2018-12-14T11:05:00.833Z,14.47
2018-12-14T11:07:32.085Z,19.53
2018-12-14T11:10:05.169Z,18.47
2018-12-14T11:12:36.229Z,16.93
2018-12-14T11:15:07.284Z,17.73
2018-12-14T11:17:38.362Z,15.53
2018-12-14T11:20:09.377Z,16.03
2018-12-14T11:22:38.463Z,18.30
2018-12-14T11:25:08.853Z,18.80
2018-12-14T11:27:37.849Z,15.47
2018-12-14T11:30:16.273Z,18.47
2018-12-14T11:32:49.654Z,14.70
2018-12-14T11:35:20.145Z,20.87
2018-12-14T11:40:23.512Z,15.67
2018-12-14T11:42:54.494Z,18.63
2018-12-14T11:45:25.947Z,20.10
2018-12-14T11:47:56.512Z,24.77
2018-12-14T11:50:27.694Z,17.93
2018-12-14T11:53:01.559Z,19.30
2018-12-14T11:55:33.333Z,16.07
2018-12-14T11:58:04.151Z,22.83
2018-12-14T12:00:35.172Z,19.20
2018-12-14T12:03:04.233Z,21.23
2018-12-14T12:05:35.037Z,16.97
2018-12-14T12:08:06.705Z,22.20
2018-12-14T12:10:39.710Z,18.40
2018-12-14T12:13:10.981Z,18.77
2018-12-14T12:15:39.918Z,19.00
2018-12-14T12:18:10.755Z,19.63
2018-12-14T12:20:51.415Z,20.40
2018-12-14T12:23:24.897Z,21.97
2018-12-14T12:25:55.576Z,19.10
2018-12-14T12:28:27.186Z,20.37
2018-12-14T12:30:55.970Z,18.57
2018-12-14T12:33:26.960Z,18.40
2018-12-14T12:35:57.965Z,17.83
2018-12-14T12:38:38.314Z,21.67
2018-12-14T12:41:09.358Z,19.87
2018-12-14T12:43:40.565Z,17.93
2018-12-14T12:46:11.544Z,18.33
2018-12-14T12:48:47.101Z,19.30
2018-12-14T12:51:18.581Z,21.00
2018-12-14T12:53:47.453Z,24.63
2018-12-14T12:56:18.310Z,19.40
2018-12-14T12:58:49.193Z,22.60
2018-12-14T13:01:22.929Z,18.23
2018-12-14T13:03:52.241Z,23.43
2018-12-14T13:06:23.129Z,22.10
2018-12-14T13:08:54.319Z,20.17
2018-12-14T13:11:23.494Z,26.03
2018-12-14T13:13:54.686Z,19.57
2018-12-14T13:16:23.776Z,24.47
2018-12-14T13:18:54.441Z,27.40
2018-12-14T13:21:28.041Z,25.73
2018-12-14T13:24:05.593Z,22.03
2018-12-14T13:26:36.370Z,24.90
2018-12-14T13:29:13.834Z,22.17
2018-12-14T13:31:43.047Z,24.93
2018-12-14T13:34:20.600Z,22.57
2018-12-14T13:36:54.676Z,22.97
2018-12-14T13:41:58.381Z,18.20
2018-12-14T13:44:39.305Z,21.07
2018-12-14T13:47:09.709Z,20.83
2018-12-14T13:49:40.839Z,21.70
2018-12-14T13:52:09.951Z,20.20
2018-12-14T13:54:47.924Z,20.63
2018-12-14T13:57:21.603Z,18.33
2018-12-14T13:59:52.098Z,23.27
2018-12-14T14:02:21.080Z,24.53
2018-12-14T14:04:52.705Z,21.33
2018-12-14T14:07:21.972Z,21.03
2018-12-14T14:09:50.882Z,25.20
2018-12-14T14:12:21.278Z,25.33
2018-12-14T14:14:59.148Z,26.17
2018-12-14T14:17:32.351Z,23.07
2018-12-14T14:20:05.338Z,20.63
2018-12-14T14:22:36.483Z,19.67
2018-12-14T14:25:17.420Z,19.27
2018-12-14T14:27:48.117Z,22.07
2018-12-14T14:30:21.613Z,23.97
2018-12-14T14:32:52.917Z,24.10
2018-12-14T14:35:23.549Z,20.73
2018-12-14T14:38:01.440Z,21.23
2018-12-14T14:40:32.642Z,21.53
2018-12-14T14:43:01.581Z,23.47
2018-12-14T14:45:32.682Z,19.57
2018-12-14T14:48:03.122Z,23.53
2018-12-14T14:50:40.084Z,21.80
2018-12-14T14:53:09.403Z,24.53
2018-12-14T14:55:47.826Z,21.77
2018-12-14T14:58:19.130Z,23.87
2018-12-14T15:00:49.496Z,24.03
2018-12-14T15:03:21.247Z,22.47
2018-12-14T15:05:52.705Z,21.23
2018-12-14T15:08:24.370Z,21.63
2018-12-14T15:10:55.656Z,21.93
2018-12-14T15:13:28.516Z,21.73
2018-12-14T15:15:59.387Z,26.13
2018-12-14T15:18:36.456Z,21.53
2018-12-14T15:21:13.337Z,24.90
2018-12-14T15:23:45.144Z,22.53
2018-12-14T15:26:16.460Z,20.70
2018-12-14T15:28:46.955Z,23.83
2018-12-14T15:31:18.528Z,19.90
2018-12-14T15:33:52.097Z,18.57
2018-12-14T15:36:23.265Z,21.57
2018-12-14T15:38:57.100Z,19.70
2018-12-14T15:41:32.296Z,20.03
2018-12-14T15:44:06.432Z,22.37
2018-12-14T15:46:37.842Z,25.97
2018-12-14T15:49:08.961Z,22.13
2018-12-14T15:51:39.674Z,17.60
2018-12-14T15:54:09.497Z,21.73
2018-12-14T15:56:45.685Z,24.17
2018-12-14T15:59:21.068Z,25.03
2018-12-14T16:01:52.454Z,19.23
2018-12-14T16:04:23.428Z,22.53
2018-12-14T16:06:52.676Z,23.93
2018-12-14T16:09:23.451Z,20.70
2018-12-14T16:11:52.434Z,19.23
2018-12-14T16:14:21.658Z,21.03
2018-12-14T16:16:57.646Z,18.33
2018-12-14T16:19:28.729Z,19.10
2018-12-14T16:22:00.101Z,18.33
2018-12-14T16:24:36.829Z,19.57
2018-12-14T16:27:07.435Z,19.37
2018-12-14T16:29:45.513Z,21.47
2018-12-14T16:32:17.097Z,23.37
2018-12-14T16:34:48.305Z,20.40
2018-12-14T16:37:19.342Z,17.33
2018-12-14T16:39:48.573Z,15.33
2018-12-14T16:42:23.889Z,21.53
2018-12-14T16:44:54.403Z,16.93
2018-12-14T16:47:25.821Z,21.97
2018-12-14T16:49:56.453Z,22.67
2018-12-14T16:52:27.782Z,22.40
2018-12-14T16:55:01.346Z,18.47
2018-12-14T16:57:32.497Z,19.17
2018-12-14T17:00:07.365Z,22.97
2018-12-14T17:02:37.780Z,20.23
2018-12-14T17:05:11.725Z,21.17
2018-12-14T17:07:42.610Z,23.90
2018-12-14T17:10:13.337Z,21.20
2018-12-14T17:12:44.297Z,20.70
2018-12-14T17:15:15.084Z,20.43
2018-12-14T17:17:46.042Z,21.60
2018-12-14T17:20:24.293Z,20.20
2018-12-14T17:22:55.153Z,19.43
2018-12-14T17:25:26.148Z,19.30
2018-12-14T17:28:04.277Z,18.37
2018-12-14T17:30:52.067Z,17.90
2018-12-14T17:33:23.086Z,23.67
2018-12-14T17:35:52.405Z,23.23
2018-12-14T17:38:30.633Z,16.83
2018-12-14T17:41:01.817Z,18.23
2018-12-14T17:43:32.291Z,21.10
2018-12-14T17:46:04.354Z,19.00
2018-12-14T17:48:33.129Z,19.57
2018-12-14T17:51:05.854Z,22.13
2018-12-14T17:53:40.129Z,24.77
2018-12-14T17:56:10.605Z,26.37
2018-12-14T17:58:41.627Z,20.20
2018-12-14T18:01:13.425Z,24.60
2018-12-14T18:03:44.996Z,23.97
2018-12-14T18:06:20.369Z,22.53
2018-12-14T18:08:54.628Z,21.37
2018-12-14T18:11:25.480Z,23.80
2018-12-14T18:13:56.723Z,21.47
2018-12-14T18:16:27.927Z,21.30
2018-12-14T18:18:58.888Z,24.00
2018-12-14T18:21:30.920Z,25.37
2018-12-14T18:23:59.993Z,25.03
2018-12-14T18:26:31.087Z,24.63
2018-12-14T18:29:07.091Z,28.77
2018-12-14T18:31:36.440Z,28.60
2018-12-14T18:34:05.253Z,24.50
2018-12-14T18:36:46.746Z,21.10
2018-12-14T18:39:15.470Z,21.93
2018-12-14T18:41:46.653Z,20.33
2018-12-14T18:46:49.769Z,21.67
2018-12-14T18:49:19.110Z,18.73
2018-12-14T18:51:48.390Z,18.07
2018-12-14T18:54:26.265Z,14.20
2018-12-14T18:56:57.477Z,18.07
2018-12-14T18:59:29.615Z,16.67
2018-12-14T19:01:58.888Z,16.73
2018-12-14T19:04:29.776Z,20.00
2018-12-14T19:07:04.250Z,16.67
2018-12-14T19:09:35.395Z,14.43
2018-12-14T19:12:05.818Z,14.53
2018-12-14T19:14:36.613Z,15.07
2018-12-14T19:17:07.006Z,17.33
2018-12-14T19:19:44.280Z,17.50
2018-12-14T19:22:15.518Z,18.17
2018-12-14T19:24:51.460Z,18.67
2018-12-14T19:27:23.053Z,17.33
2018-12-14T19:29:54.003Z,22.73
2018-12-14T19:32:24.497Z,17.97
2018-12-14T19:34:53.668Z,20.17
2018-12-14T19:37:24.932Z,19.53
2018-12-14T19:39:58.912Z,18.73
2018-12-14T19:42:29.409Z,23.80
2018-12-14T19:47:30.452Z,20.10
2018-12-14T19:49:59.657Z,21.07
2018-12-14T19:52:30.971Z,20.00
2018-12-14T19:55:08.824Z,16.83
2018-12-14T19:57:39.481Z,17.97
2018-12-14T20:00:11.382Z,20.50
2018-12-14T20:02:41.762Z,20.37
2018-12-14T20:05:16.226Z,16.50
2018-12-14T20:07:47.024Z,19.53
2018-12-14T20:10:24.565Z,16.63
2018-12-14T20:12:56.261Z,18.40
2018-12-14T20:15:26.661Z,18.67
2018-12-14T20:18:00.208Z,16.97
2018-12-14T20:20:31.420Z,21.30
2018-12-14T20:23:02.310Z,18.17
2018-12-14T20:25:33.328Z,23.23
2018-12-14T20:28:11.178Z,20.00
2018-12-14T20:30:45.136Z,21.97
2018-12-14T20:33:19.237Z,19.33
2018-12-14T20:35:48.022Z,19.77
2018-12-14T20:38:24.826Z,17.37
2018-12-14T20:40:55.417Z,24.50
2018-12-14T20:43:24.216Z,23.93
2018-12-14T20:45:55.084Z,23.43
2018-12-14T20:48:29.137Z,20.53
2018-12-14T20:51:00.065Z,21.60
2018-12-14T20:53:33.929Z,21.13
2018-12-14T20:56:05.529Z,25.77
2018-12-14T20:58:36.032Z,23.90
2018-12-14T21:01:07.242Z,22.63
2018-12-14T21:03:36.015Z,19.63
2018-12-14T21:06:15.415Z,23.00
2018-12-14T21:08:48.565Z,24.43
2018-12-14T21:11:17.893Z,25.73
2018-12-14T21:13:51.593Z,22.00
2018-12-14T21:16:26.151Z,20.77
2018-12-14T21:19:05.520Z,23.97
2018-12-14T21:21:36.368Z,23.20
2018-12-14T21:24:07.347Z,24.63
2018-12-14T21:26:38.221Z,21.30
2018-12-14T21:29:09.294Z,21.00
2018-12-14T21:31:40.525Z,22.07
2018-12-14T21:34:17.043Z,23.13
2018-12-14T21:36:50.680Z,25.67
2018-12-14T21:39:22.289Z,25.20
2018-12-14T21:44:51.119Z,21.23
2018-12-14T21:47:25.456Z,24.03
2018-12-14T21:49:57.001Z,24.83
2018-12-14T21:52:28.208Z,24.00
2018-12-14T21:54:59.139Z,21.40
2018-12-14T21:57:36.168Z,19.70
2018-12-14T22:00:10.234Z,23.77
2018-12-14T22:02:43.509Z,23.80
2018-12-14T22:05:13.888Z,19.47
2018-12-14T22:07:51.445Z,36.40
2018-12-14T22:10:22.744Z,21.43
2018-12-14T22:12:56.613Z,20.97
2018-12-14T22:15:27.689Z,24.80
2018-12-14T22:17:58.708Z,25.87
2018-12-14T22:20:29.696Z,21.77
2018-12-14T22:25:56.256Z,20.17
2018-12-14T22:28:27.139Z,18.63
2018-12-14T22:31:07.709Z,23.37
2018-12-14T22:33:40.975Z,20.90
2018-12-14T22:36:12.180Z,21.87
2018-12-14T22:41:38.778Z,18.60
2018-12-14T22:44:21.576Z,22.67
2018-12-14T22:46:51.792Z,22.67
2018-12-14T22:49:28.977Z,17.67
2018-12-14T22:52:02.102Z,20.97
2018-12-14T22:54:38.561Z,20.03
2018-12-14T22:57:12.543Z,17.33
2018-12-14T22:59:46.029Z,22.43
2018-12-14T23:02:16.579Z,19.57
2018-12-14T23:04:53.010Z,20.43
2018-12-14T23:07:26.537Z,20.80
2018-12-14T23:10:04.618Z,20.50
2018-12-14T23:12:33.727Z,21.30
2018-12-14T23:15:05.085Z,21.80
2018-12-14T23:17:35.798Z,21.37
2018-12-14T23:20:05.095Z,20.73
2018-12-14T23:22:36.022Z,21.33
2018-12-14T23:25:13.908Z,19.13
2018-12-14T23:27:45.121Z,22.57
2018-12-14T23:30:25.697Z,22.90
2018-12-14T23:32:56.231Z,24.43
2018-12-14T23:35:27.449Z,22.23
2018-12-14T23:37:58.509Z,21.80
2018-12-14T23:40:36.245Z,21.10
2018-12-14T23:43:07.557Z,21.70
2018-12-14T23:45:38.505Z,19.20
2018-12-14T23:48:13.840Z,22.53
2018-12-14T23:50:44.881Z,20.40
2018-12-14T23:53:19.234Z,20.63
2018-12-14T23:55:51.066Z,19.13
2018-12-14T23:58:23.033Z,21.00
